ZSPD/PVG METAR and TAF weather

Enter ICAO airport designator
Station Type Date Time Source
ZSPD METAR 2024/07/24 11:00 UTC NOAA

ZSPD 241100Z 11005MPS 9999 SCT020 30/26 Q1000 NOSIG


Station Type Date Time Source
ZSPD Decoded METAR 2024/07/24 11:00 UTC NOAA

Shanghai / Pudong, China (ZSPD) 31-07N 121-46E
Jul 24, 2024 - 07:00 AM EDT / 2024.07.24 1100 UTC
Wind: from the ESE (110 degrees) at 11 MPH (10 KT):0
Visibility: greater than 7 mile(s):0
Sky conditions: partly cloudy
Temperature: 86 F (30 C)
Heat index: 99.3 F (37.4 C):1
Dew Point: 78 F (26 C)
Relative Humidity: 79%
Pressure (altimeter): 29.53 in. Hg (1000 hPa)
ob: ZSPD 241100Z 11005MPS 9999 SCT020 30/26 Q1000 NOSIG
cycle: 11

Station Type Date Time Source
ZSPD TAF 2024/07/24 12:03 UTC NOAA